Time;durP1;ratioP1;P1;durP2;ratioP2;P2;SDS_P1;SDS_P2;PMS_P1;PMS_P2;Temp;Humidity;BMP_temperature;BMP_pressure;BME280_temperature;BME280_humidity;BME280_pressure;Samples;Min_cycle;Max_cycle;Signal;HPM_P1;HPM_P2
2021/05/11 00:01:46;;;;;;;5.93;1.50;;;13.90;99.90;;;;;;5050748;28;20021;-67
2021/05/11 00:04:12;;;;;;;7.03;1.42;;;13.80;99.90;;;;;;5049645;28;20488;-67
2021/05/11 00:06:39;;;;;;;4.60;1.58;;;13.70;99.90;;;;;;5051150;28;20033;-67
2021/05/11 00:09:06;;;;;;;4.70;1.40;;;13.60;99.90;;;;;;5050872;28;20039;-67
2021/05/11 00:11:32;;;;;;;2.78;1.52;;;13.70;99.90;;;;;;5050962;28;20024;-67
2021/05/11 00:13:57;;;;;;;3.80;1.50;;;13.50;99.90;;;;;;5050897;28;20025;-67
2021/05/11 00:16:23;;;;;;;9.15;1.73;;;13.40;99.90;;;;;;5051268;28;20385;-67
2021/05/11 00:18:48;;;;;;;6.78;1.58;;;13.30;99.90;;;;;;5051139;28;20025;-68
2021/05/11 00:21:14;;;;;;;4.38;1.70;;;13.30;99.90;;;;;;5051019;28;20025;-68
2021/05/11 00:23:40;;;;;;;4.95;1.50;;;13.40;99.90;;;;;;5050740;28;20112;-67
2021/05/11 00:26:05;;;;;;;4.88;1.40;;;13.40;99.90;;;;;;5049314;28;20440;-67
2021/05/11 00:28:31;;;;;;;8.20;1.70;;;13.30;99.90;;;;;;5049332;28;20054;-67
2021/05/11 00:30:57;;;;;;;6.55;1.83;;;13.10;99.90;;;;;;5050879;28;20079;-67
2021/05/11 00:33:22;;;;;;;3.80;1.65;;;13.20;99.90;;;;;;5048935;28;20033;-68
2021/05/11 00:35:48;;;;;;;2.55;1.40;;;13.00;99.90;;;;;;5049269;28;20021;-67
2021/05/11 00:38:14;;;;;;;4.28;1.92;;;13.00;99.90;;;;;;5050625;28;20025;-67
2021/05/11 00:40:39;;;;;;;6.13;2.03;;;12.90;99.90;;;;;;5050292;28;20025;-67
2021/05/11 00:43:05;;;;;;;6.15;1.92;;;12.90;99.90;;;;;;5050442;28;20029;-67
2021/05/11 00:45:30;;;;;;;8.57;1.92;;;12.90;99.90;;;;;;5050277;28;20063;-68
2021/05/11 00:47:56;;;;;;;4.28;1.70;;;12.90;99.90;;;;;;5050765;28;20033;-67
2021/05/11 00:50:22;;;;;;;5.22;1.85;;;12.90;99.90;;;;;;5048948;28;20025;-68
2021/05/11 00:52:48;;;;;;;6.78;1.67;;;13.00;99.90;;;;;;5050276;28;20028;-67
2021/05/11 00:55:13;;;;;;;3.70;1.55;;;13.00;99.90;;;;;;5049166;28;20025;-67
2021/05/11 00:57:40;;;;;;;3.75;1.80;;;13.10;99.90;;;;;;5050598;28;20029;-67
2021/05/11 01:00:08;;;;;;;5.60;2.20;;;13.20;99.90;;;;;;5049204;28;20032;-67
2021/05/11 01:02:34;;;;;;;9.60;2.50;;;13.10;99.90;;;;;;5048654;28;20543;-67
2021/05/11 01:05:00;;;;;;;3.92;1.80;;;13.10;99.90;;;;;;5049022;28;20127;-67
2021/05/11 01:07:26;;;;;;;4.25;2.08;;;12.90;99.90;;;;;;5050410;28;20029;-67
2021/05/11 01:09:52;;;;;;;6.32;2.05;;;12.90;99.90;;;;;;5048924;28;20083;-67
2021/05/11 01:12:18;;;;;;;6.82;2.10;;;12.60;99.90;;;;;;5049174;28;20028;-67
2021/05/11 01:14:43;;;;;;;6.07;1.88;;;12.30;99.90;;;;;;5049014;28;20124;-67
2021/05/11 01:17:16;;;;;;;5.20;2.33;;;12.20;99.90;;;;;;5050182;28;20017;-67
2021/05/11 01:19:56;;;;;;;14.45;2.40;;;12.10;99.90;;;;;;5048970;28;20028;-67
2021/05/11 01:25:28;;;;;;;5.82;2.08;;;12.40;99.90;;;;;;5049911;28;20534;-67
2021/05/11 01:31:18;;;;;;;5.53;1.98;;;12.40;99.90;;;;;;5065281;28;20604;-67
2021/05/11 02:11:19;;;;;;;8.57;2.30;;;12.40;99.90;;;;;;5053304;28;20035;-66
2021/05/11 02:24:40;;;;;;;3.85;1.95;;;11.90;99.90;;;;;;5053442;28;20040;-67
2021/05/11 02:27:05;;;;;;;3.60;2.20;;;11.80;99.90;;;;;;5053027;28;20049;-67
2021/05/11 02:29:31;;;;;;;12.00;2.30;;;11.70;99.90;;;;;;5052478;28;20032;-67
2021/05/11 02:31:57;;;;;;;5.15;2.30;;;11.80;99.90;;;;;;5052634;28;20167;-67
2021/05/11 02:34:22;;;;;;;10.18;2.85;;;11.90;99.90;;;;;;5051442;28;20036;-67
2021/05/11 02:36:48;;;;;;;8.55;2.60;;;11.80;99.90;;;;;;5051792;28;20025;-67
2021/05/11 02:39:13;;;;;;;9.57;2.55;;;11.90;99.90;;;;;;5052823;28;20031;-67
2021/05/11 02:41:42;;;;;;;6.82;2.30;;;11.80;99.90;;;;;;5052827;28;20017;-67
2021/05/11 02:44:08;;;;;;;4.80;2.20;;;11.70;99.90;;;;;;5051477;28;20035;-67
2021/05/11 02:46:33;;;;;;;9.07;2.60;;;11.70;99.90;;;;;;5052964;28;20414;-67
2021/05/11 02:49:00;;;;;;;7.78;2.70;;;11.70;99.90;;;;;;5052454;28;20025;-67
2021/05/11 02:51:25;;;;;;;6.57;2.30;;;11.70;99.90;;;;;;5052510;28;20023;-67
2021/05/11 02:53:51;;;;;;;7.30;2.80;;;11.70;99.90;;;;;;5053079;28;20029;-67
2021/05/11 02:56:16;;;;;;;5.38;2.45;;;11.80;99.90;;;;;;5052605;28;20377;-67
2021/05/11 02:58:43;;;;;;;10.20;2.58;;;11.80;99.90;;;;;;5052914;28;20029;-67
2021/05/11 03:01:09;;;;;;;4.55;2.28;;;11.50;99.90;;;;;;5050883;28;20028;-67
2021/05/11 03:03:34;;;;;;;8.45;2.83;;;11.10;99.90;;;;;;5051677;28;20037;-67
2021/05/11 03:06:00;;;;;;;7.82;2.63;;;11.10;99.90;;;;;;5052386;28;20033;-67
2021/05/11 03:08:25;;;;;;;7.93;2.65;;;11.20;99.90;;;;;;5052355;28;20393;-67
2021/05/11 03:10:51;;;;;;;10.32;5.72;;;11.30;99.90;;;;;;5051766;28;20385;-67
2021/05/11 03:13:16;;;;;;;8.98;4.95;;;11.40;99.90;;;;;;5051894;28;20033;-67
2021/05/11 03:15:42;;;;;;;7.10;4.13;;;11.40;99.90;;;;;;5052167;28;20032;-67
2021/05/11 03:18:08;;;;;;;5.43;3.15;;;11.50;99.90;;;;;;5052084;28;20029;-67
2021/05/11 03:20:33;;;;;;;7.07;3.40;;;11.60;99.90;;;;;;5050662;28;20029;-66
2021/05/11 03:23:01;;;;;;;8.68;3.33;;;11.60;99.90;;;;;;5050308;28;20021;-67
2021/05/11 03:25:26;;;;;;;7.57;2.85;;;11.60;99.90;;;;;;5050620;28;20108;-66
2021/05/11 03:27:52;;;;;;;5.10;2.58;;;11.60;99.90;;;;;;5050458;28;20140;-66
2021/05/11 03:30:18;;;;;;;5.65;2.92;;;11.60;99.90;;;;;;5051977;28;20060;-66
2021/05/11 03:32:43;;;;;;;5.97;2.90;;;11.40;99.90;;;;;;5051631;28;20025;-66
2021/05/11 03:35:10;;;;;;;4.00;2.58;;;11.30;99.90;;;;;;5051775;28;20071;-66
2021/05/11 03:37:35;;;;;;;6.53;2.72;;;11.40;99.90;;;;;;5051641;28;20448;-66
2021/05/11 03:40:02;;;;;;;8.45;3.25;;;11.60;99.90;;;;;;5051723;28;20079;-66
2021/05/11 03:42:32;;;;;;;7.20;3.40;;;11.80;99.90;;;;;;5051390;28;20283;-66
2021/05/11 03:45:03;;;;;;;6.45;2.63;;;11.90;99.90;;;;;;5050238;28;20021;-66
2021/05/11 03:47:35;;;;;;;7.05;2.53;;;11.80;99.90;;;;;;5051646;28;20055;-66
2021/05/11 03:50:01;;;;;;;7.63;3.20;;;11.80;99.90;;;;;;5051531;28;20024;-67
2021/05/11 03:52:26;;;;;;;8.30;3.17;;;11.70;99.90;;;;;;5051436;28;20527;-66
2021/05/11 03:54:52;;;;;;;8.35;3.42;;;11.60;99.90;;;;;;5050231;28;20025;-66
2021/05/11 03:57:17;;;;;;;8.18;3.40;;;11.50;99.90;;;;;;5051623;28;20079;-66
2021/05/11 03:59:43;;;;;;;10.18;3.85;;;11.50;99.90;;;;;;5051327;28;20017;-66
2021/05/11 04:02:09;;;;;;;8.48;3.58;;;11.40;99.90;;;;;;5051002;28;20397;-66
2021/05/11 04:04:34;;;;;;;9.98;4.63;;;11.40;99.90;;;;;;5051191;28;20033;-66
2021/05/11 04:07:00;;;;;;;7.40;4.30;;;11.50;99.90;;;;;;5049925;28;20025;-66
2021/05/11 04:17:05;;;;;;;9.25;3.85;;;11.30;99.90;;;;;;5051305;28;20435;-66
2021/05/11 04:19:31;;;;;;;10.13;4.13;;;11.40;99.90;;;;;;5051066;28;20025;-66
2021/05/11 04:21:56;;;;;;;10.88;4.43;;;11.40;99.90;;;;;;5050276;28;20359;-66
2021/05/11 04:24:24;;;;;;;14.40;4.97;;;11.40;99.90;;;;;;5050414;28;20036;-66
2021/05/11 04:26:50;;;;;;;6.68;3.60;;;11.40;99.90;;;;;;5050797;28;20303;-66
2021/05/11 04:29:16;;;;;;;10.57;4.47;;;11.60;99.90;;;;;;5050874;28;20039;-67
2021/05/11 04:31:41;;;;;;;8.50;3.70;;;11.60;99.90;;;;;;5049564;28;20075;-66
2021/05/11 04:34:07;;;;;;;7.05;3.80;;;11.80;99.90;;;;;;5049369;28;20021;-68
2021/05/11 04:36:32;;;;;;;10.10;4.18;;;11.80;99.90;;;;;;5050914;28;20094;-68
2021/05/11 04:38:58;;;;;;;11.07;3.80;;;11.80;99.90;;;;;;5049566;28;20070;-66
2021/05/11 04:41:26;;;;;;;7.65;3.70;;;11.90;99.90;;;;;;5050674;28;20021;-66
2021/05/11 04:43:52;;;;;;;13.50;3.88;;;12.00;99.90;;;;;;5049801;28;20029;-66
2021/05/11 04:48:46;;;;;;;8.85;3.35;;;12.20;99.90;;;;;;5050686;28;20112;-67
2021/05/11 04:51:13;;;;;;;6.10;3.35;;;12.30;99.90;;;;;;5050845;28;20386;-66
2021/05/11 04:53:40;;;;;;;8.77;3.75;;;12.40;99.90;;;;;;5050529;28;20032;-66
2021/05/11 04:56:05;;;;;;;11.73;3.70;;;12.40;99.90;;;;;;5049835;28;20033;-66
2021/05/11 04:58:31;;;;;;;7.38;3.30;;;12.50;99.90;;;;;;5050530;28;20102;-66
2021/05/11 05:01:01;;;;;;;9.10;3.17;;;12.60;99.90;;;;;;5050498;28;20025;-66
2021/05/11 05:03:35;;;;;;;7.60;3.10;;;12.70;99.90;;;;;;5048814;28;20025;-66
2021/05/11 05:06:00;;;;;;;6.68;3.42;;;12.80;99.90;;;;;;5049306;28;20039;-66
2021/05/11 05:08:26;;;;;;;8.98;3.42;;;12.90;99.90;;;;;;5050496;28;20037;-65
2021/05/11 05:10:52;;;;;;;9.13;3.60;;;13.00;99.90;;;;;;5050548;28;20450;-67
2021/05/11 05:13:22;;;;;;;6.75;3.50;;;13.00;99.90;;;;;;5049229;28;20528;-67
2021/05/11 05:15:55;;;;;;;7.68;3.55;;;12.90;99.90;;;;;;5050180;28;20021;-67
2021/05/11 05:18:21;;;;;;;10.52;3.90;;;12.90;99.90;;;;;;5049241;28;20159;-67
2021/05/11 05:20:50;;;;;;;9.38;3.35;;;13.00;99.90;;;;;;5049009;28;20096;-67
2021/05/11 05:23:16;;;;;;;10.35;3.33;;;12.90;99.90;;;;;;5050267;28;20032;-67
2021/05/11 05:25:46;;;;;;;8.30;3.40;;;12.90;99.90;;;;;;5049982;28;20048;-66
2021/05/11 05:28:13;;;;;;;9.25;2.90;;;12.90;99.90;;;;;;5050451;28;20061;-67
2021/05/11 05:30:39;;;;;;;8.68;3.03;;;12.90;99.90;;;;;;5049036;28;20115;-67
2021/05/11 05:33:05;;;;;;;7.03;3.10;;;13.20;99.90;;;;;;5050368;28;20036;-67
2021/05/11 05:35:31;;;;;;;8.45;2.90;;;13.50;99.90;;;;;;5052515;28;20257;-67
2021/05/11 05:37:57;;;;;;;8.13;2.83;;;13.70;99.90;;;;;;5054213;28;20021;-67
2021/05/11 05:40:26;;;;;;;7.78;2.80;;;13.80;99.90;;;;;;5052588;28;20032;-68
2021/05/11 05:42:52;;;;;;;7.68;2.67;;;13.90;99.90;;;;;;5053841;28;20029;-67
2021/05/11 05:45:19;;;;;;;6.43;2.50;;;13.80;99.90;;;;;;5053871;28;20055;-67
2021/05/11 05:47:51;;;;;;;5.60;2.72;;;13.80;99.90;;;;;;5053323;28;20075;-67
2021/05/11 05:50:19;;;;;;;4.63;2.33;;;13.60;99.90;;;;;;5073363;28;20082;-67
2021/05/11 05:52:45;;;;;;;6.72;2.90;;;13.30;99.90;;;;;;5068961;28;20469;-67
2021/05/11 05:55:12;;;;;;;8.48;2.65;;;13.30;99.90;;;;;;5069660;28;20070;-67
2021/05/11 05:57:38;;;;;;;6.63;2.53;;;13.30;99.90;;;;;;5069791;28;20096;-66
2021/05/11 06:00:04;;;;;;;5.88;2.53;;;13.30;99.90;;;;;;5064984;28;20111;-67
2021/05/11 06:02:30;;;;;;;5.88;2.60;;;13.40;99.90;;;;;;5055678;28;20028;-67
2021/05/11 06:04:56;;;;;;;13.10;2.67;;;13.50;99.90;;;;;;5059374;28;20298;-66
2021/05/11 06:07:21;;;;;;;9.55;2.92;;;13.50;99.90;;;;;;5062733;28;20466;-66
2021/05/11 06:09:51;;;;;;;8.70;2.60;;;13.60;99.90;;;;;;5062941;28;20025;-67
2021/05/11 06:17:58;;;;;;;6.88;2.40;;;14.00;99.90;;;;;;5061841;28;20452;-67
2021/05/11 06:20:24;;;;;;;8.85;2.72;;;14.20;99.90;;;;;;5064217;28;20029;-67
2021/05/11 06:22:50;;;;;;;10.88;3.17;;;14.20;99.90;;;;;;5052232;28;20028;-68
2021/05/11 06:25:15;;;;;;;9.05;2.60;;;14.30;99.90;;;;;;5057059;28;20036;-67
2021/05/11 06:27:41;;;;;;;8.90;2.25;;;14.40;99.90;;;;;;5061114;28;20056;-67
2021/05/11 06:30:08;;;;;;;6.13;2.13;;;14.40;99.90;;;;;;5056478;28;20548;-66
2021/05/11 06:32:33;;;;;;;5.53;2.10;;;14.30;99.90;;;;;;5053837;28;20036;-67
2021/05/11 06:35:03;;;;;;;8.48;2.75;;;14.30;99.90;;;;;;5063724;28;20186;-67
2021/05/11 06:37:29;;;;;;;4.45;2.30;;;14.40;99.90;;;;;;5065092;28;20024;-68
2021/05/11 06:39:57;;;;;;;7.18;2.72;;;14.40;99.90;;;;;;5052825;28;20130;-67
2021/05/11 06:42:23;;;;;;;12.13;2.40;;;14.40;99.90;;;;;;5053991;28;20083;-67
2021/05/11 06:50:31;;;;;;;7.45;2.40;;;14.80;99.90;;;;;;5058766;28;20142;-66
2021/05/11 06:55:31;;;;;;;7.90;2.30;;;15.10;99.90;;;;;;5056967;28;20025;-67
2021/05/11 06:58:02;;;;;;;15.07;2.45;;;15.40;99.90;;;;;;5049943;28;20463;-67
2021/05/11 07:00:28;;;;;;;6.47;2.38;;;15.70;99.90;;;;;;5058399;28;20033;-67
2021/05/11 07:02:54;;;;;;;6.95;2.63;;;15.60;99.90;;;;;;5055018;28;20032;-67
2021/05/11 07:05:19;;;;;;;5.22;2.55;;;15.50;99.90;;;;;;5048062;28;20032;-67
2021/05/11 07:07:45;;;;;;;6.65;2.78;;;15.90;99.90;;;;;;5059509;28;20484;-67
2021/05/11 07:15:21;;;;;;;7.90;2.70;;;16.50;99.90;;;;;;5046749;28;20082;-66
2021/05/11 07:17:47;;;;;;;5.97;2.17;;;16.40;99.90;;;;;;5053443;28;20032;-67
2021/05/11 07:20:13;;;;;;;5.07;2.13;;;16.10;99.90;;;;;;5055471;28;20029;-67
2021/05/11 07:22:38;;;;;;;6.97;2.60;;;15.70;99.90;;;;;;5052519;28;20571;-66
2021/05/11 07:25:08;;;;;;;5.68;2.33;;;15.60;99.90;;;;;;5058612;28;20036;-66
2021/05/11 07:30:16;;;;;;;9.75;2.40;;;16.80;99.90;;;;;;5049394;28;20455;-67
2021/05/11 07:32:42;;;;;;;4.82;2.20;;;17.40;99.90;;;;;;5058379;28;20035;-66
2021/05/11 07:35:08;;;;;;;5.80;2.10;;;17.90;99.90;;;;;;5052466;28;21449;-66
2021/05/11 07:37:34;;;;;;;6.88;2.22;;;18.60;99.90;;;;;;5060754;28;20044;-66
2021/05/11 07:40:01;;;;;;;5.25;1.90;;;18.80;99.90;;;;;;5055579;28;20033;-67
2021/05/11 07:42:26;;;;;;;6.90;2.38;;;19.20;99.90;;;;;;5058660;28;20035;-68
2021/05/11 07:44:56;;;;;;;7.82;2.70;;;19.10;99.90;;;;;;5057290;28;20024;-67
2021/05/11 08:04:15;;;;;;;6.53;2.78;;;21.10;99.80;;;;;;5050430;28;20090;-65
2021/05/11 08:14:44;;;;;;;7.00;2.33;;;21.70;97.80;;;;;;5043555;28;20093;-65
2021/05/11 08:17:09;;;;;;;10.75;2.70;;;22.10;97.40;;;;;;5051934;28;20016;-66
2021/05/11 08:27:38;;;;;;;12.98;2.97;;;20.50;99.40;;;;;;5059553;28;20578;-66
2021/05/11 08:30:05;;;;;;;7.43;3.03;;;19.90;99.90;;;;;;5063265;28;20185;-65
2021/05/11 08:32:30;;;;;;;8.30;3.10;;;20.10;99.90;;;;;;5053918;28;20058;-65
2021/05/11 08:34:56;;;;;;;7.85;3.10;;;21.20;99.80;;;;;;5066161;28;20028;-66
2021/05/11 08:37:21;;;;;;;9.85;2.75;;;21.40;98.90;;;;;;5066128;28;20063;-65
2021/05/11 08:39:49;;;;;;;7.60;2.80;;;21.70;98.10;;;;;;5061120;28;20043;-66
2021/05/11 08:42:14;;;;;;;8.07;2.70;;;22.00;96.80;;;;;;5055342;28;20119;-65
2021/05/11 08:44:40;;;;;;;8.45;3.05;;;22.10;94.30;;;;;;5053817;28;20553;-65
2021/05/11 08:47:06;;;;;;;6.35;2.60;;;22.60;93.90;;;;;;5063005;28;20083;-65
2021/05/11 08:49:32;;;;;;;5.07;2.78;;;24.00;90.30;;;;;;5041523;28;20059;-65
2021/05/11 08:52:48;;;;;;;8.45;2.67;;;25.10;83.30;;;;;;5052170;28;20029;-65
2021/05/11 09:14:49;;;;;;;3.53;1.88;;;24.90;62.10;;;;;;5076197;28;20028;-66
2021/05/11 09:25:33;;;;;;;6.10;2.00;;;22.80;67.80;;;;;;5055122;28;20118;-65
2021/05/11 09:29:03;;;;;;;10.65;2.03;;;22.80;70.60;;;;;;5062659;28;20576;-65
2021/05/11 09:34:37;;;;;;;7.20;1.88;;;23.70;65.50;;;;;;5060403;28;20459;-66
2021/05/11 09:45:17;;;;;;;4.68;1.40;;;26.40;54.40;;;;;;5051619;28;20408;-66
2021/05/11 10:10:27;;;;;;;5.60;1.60;;;26.40;51.80;;;;;;5056890;28;20025;-66
2021/05/11 10:48:29;;;;;;;8.10;1.63;;;25.10;48.50;;;;;;5062753;28;20579;-66
2021/05/11 10:51:15;;;;;;;13.63;1.98;;;26.50;48.20;;;;;;5055281;28;20025;-66
2021/05/11 10:53:58;;;;;;;12.93;1.80;;;26.70;45.30;;;;;;5061111;28;20024;-66
2021/05/11 11:02:23;;;;;;;23.77;1.70;;;28.30;42.70;;;;;;5050856;28;20024;-65
2021/05/11 11:04:49;;;;;;;10.20;1.63;;;28.60;41.60;;;;;;5057536;28;20059;-65
2021/05/11 11:07:15;;;;;;;17.25;1.90;;;26.80;45.40;;;;;;5053257;28;20104;-65
2021/05/11 11:09:55;;;;;;;6.97;1.30;;;25.80;47.80;;;;;;5053563;28;20119;-65
2021/05/11 11:12:21;;;;;;;4.43;1.27;;;25.10;48.50;;;;;;5045467;28;20020;-65
2021/05/11 11:14:48;;;;;;;4.78;1.35;;;24.00;49.80;;;;;;5064744;28;20056;-65
2021/05/11 11:17:15;;;;;;;8.30;1.50;;;23.60;51.80;;;;;;5053314;28;20032;-64
2021/05/11 11:19:48;;;;;;;4.95;1.13;;;23.20;53.10;;;;;;5060605;28;20362;-64
2021/05/11 11:25:01;;;;;;;3.78;1.10;;;21.90;54.60;;;;;;5031872;28;20035;-64
2021/05/11 11:27:31;;;;;;;4.60;1.00;;;21.10;59.40;;;;;;5058888;28;20052;-66
2021/05/11 11:29:58;;;;;;;5.15;1.33;;;20.80;61.30;;;;;;5048491;28;20579;-64
2021/05/11 11:32:24;;;;;;;7.55;1.38;;;20.60;62.70;;;;;;5050266;28;20029;-65
2021/05/11 11:34:54;;;;;;;4.40;1.20;;;20.40;63.40;;;;;;5052200;28;20064;-65
2021/05/11 11:37:22;;;;;;;5.07;1.33;;;20.50;61.60;;;;;;5053433;28;20086;-65
2021/05/11 11:39:53;;;;;;;5.03;1.27;;;20.30;61.00;;;;;;5048880;28;20020;-64
2021/05/11 11:42:28;;;;;;;8.30;1.33;;;20.20;60.60;;;;;;5049857;28;20054;-64
2021/05/11 11:47:24;;;;;;;18.95;2.22;;;19.70;61.60;;;;;;5053834;28;20152;-64
2021/05/11 11:49:53;;;;;;;14.73;2.17;;;19.60;60.40;;;;;;5052085;28;20059;-64
2021/05/11 12:00:08;;;;;;;7.57;1.30;;;19.20;64.10;;;;;;5042642;28;20269;-64
2021/05/11 12:02:36;;;;;;;9.52;1.10;;;19.10;66.50;;;;;;5044099;28;20111;-65
2021/05/11 12:05:12;;;;;;;22.88;3.65;;;19.10;71.00;;;;;;5051216;28;20036;-68
2021/05/11 12:10:24;;;;;;;6.18;1.85;;;17.40;99.90;;;;;;5051369;28;20128;-65
2021/05/11 12:12:50;;;;;;;8.55;2.17;;;15.90;99.90;;;;;;5051782;28;20072;-65
2021/05/11 12:15:20;;;;;;;11.13;2.30;;;15.10;99.90;;;;;;5052388;28;20118;-65
2021/05/11 12:17:57;;;;;;;7.57;2.20;;;14.60;99.90;;;;;;5060088;28;20031;-66
2021/05/11 12:20:26;;;;;;;7.40;2.67;;;14.30;99.90;;;;;;5059209;28;20105;-67
2021/05/11 12:23:08;;;;;;;11.75;2.53;;;14.30;99.90;;;;;;5056414;28;20104;-67
2021/05/11 12:25:35;;;;;;;10.52;2.55;;;14.40;99.90;;;;;;5065665;28;20029;-66
2021/05/11 12:28:00;;;;;;;10.63;2.47;;;14.40;99.90;;;;;;5058310;28;20048;-67
2021/05/11 12:30:43;;;;;;;9.75;2.38;;;14.30;99.90;;;;;;5054006;28;20578;-66
2021/05/11 12:33:12;;;;;;;5.20;2.30;;;14.30;99.90;;;;;;5051423;28;20082;-67
2021/05/11 12:35:42;;;;;;;5.50;1.80;;;14.20;99.90;;;;;;5051427;28;20422;-67
2021/05/11 12:38:26;;;;;;;4.85;2.47;;;14.20;99.90;;;;;;5051922;28;20040;-66
2021/05/11 12:43:41;;;;;;;4.35;1.55;;;14.40;99.90;;;;;;5046666;28;20533;-68
2021/05/11 12:46:19;;;;;;;4.18;1.27;;;14.00;99.90;;;;;;5050049;28;20485;-67
2021/05/11 12:48:58;;;;;;;4.55;1.20;;;13.70;99.90;;;;;;5048038;28;20116;-66
2021/05/11 12:51:42;;;;;;;6.88;2.00;;;13.90;99.90;;;;;;5039514;28;20036;-66
2021/05/11 12:54:45;;;;;;;7.45;2.25;;;14.10;99.90;;;;;;5058285;28;20535;-66
2021/05/11 12:57:22;;;;;;;;;;;14.30;99.90;;;;;;5062359;28;20017;-66
2021/05/11 13:32:20;;;;;;;1.92;0.68;;;17.10;99.90;;;;;;5056120;28;20024;-67
2021/05/11 13:34:46;;;;;;;3.08;0.57;;;17.10;99.90;;;;;;5065773;28;20021;-66
2021/05/11 13:37:11;;;;;;;1.00;0.65;;;17.10;99.90;;;;;;5057529;28;20029;-65
2021/05/11 13:39:37;;;;;;;1.67;0.57;;;17.10;99.90;;;;;;5068074;28;20420;-66
2021/05/11 13:42:02;;;;;;;3.05;0.50;;;17.10;99.90;;;;;;5061610;28;20374;-66
2021/05/11 13:44:28;;;;;;;1.45;0.70;;;17.30;99.90;;;;;;5066858;28;20081;-66
2021/05/11 13:46:54;;;;;;;1.98;0.73;;;17.40;99.90;;;;;;5061973;28;20029;-66
2021/05/11 13:49:20;;;;;;;3.47;0.95;;;17.40;99.90;;;;;;5048097;28;20040;-66
2021/05/11 13:51:46;;;;;;;3.63;0.55;;;17.00;99.90;;;;;;5049065;28;20022;-66
2021/05/11 13:54:14;;;;;;;3.08;0.70;;;17.10;99.90;;;;;;5049822;28;20064;-66
2021/05/11 13:56:48;;;;;;;6.90;0.85;;;17.20;99.90;;;;;;5054673;28;20501;-66
2021/05/11 14:04:26;;;;;;;5.30;0.70;;;17.60;99.90;;;;;;5062758;28;20556;-66
2021/05/11 14:06:52;;;;;;;2.40;0.32;;;17.60;99.90;;;;;;5062419;28;20063;-66
2021/05/11 14:09:18;;;;;;;1.55;0.60;;;17.40;99.90;;;;;;5064998;28;20032;-66
2021/05/11 14:11:44;;;;;;;1.92;0.60;;;17.50;99.90;;;;;;5066937;28;20443;-66
2021/05/11 14:14:12;;;;;;;2.20;0.50;;;17.70;99.90;;;;;;5070609;28;20032;-65
2021/05/11 14:16:37;;;;;;;1.77;0.70;;;17.90;99.90;;;;;;5072146;28;20143;-65
2021/05/11 14:19:04;;;;;;;5.20;2.00;;;17.90;99.90;;;;;;5066080;28;20108;-66
2021/05/11 14:21:30;;;;;;;10.60;1.13;;;18.10;99.90;;;;;;5052572;28;20029;-66
2021/05/11 14:23:56;;;;;;;1.88;0.80;;;18.10;99.90;;;;;;5064684;28;20028;-66
2021/05/11 14:26:26;;;;;;;3.28;0.70;;;18.00;99.90;;;;;;5073139;28;20425;-66
2021/05/11 14:28:52;;;;;;;3.90;0.60;;;18.10;99.90;;;;;;5072820;28;20500;-66
2021/05/11 14:31:18;;;;;;;7.85;0.70;;;18.10;99.90;;;;;;5069986;28;20078;-66
2021/05/11 14:33:45;;;;;;;1.33;0.50;;;18.00;99.90;;;;;;5068300;28;20029;-66
2021/05/11 14:36:11;;;;;;;2.00;0.70;;;18.20;99.90;;;;;;5068412;28;20509;-66
2021/05/11 14:38:37;;;;;;;4.78;0.90;;;18.30;99.90;;;;;;5061808;28;20091;-66
2021/05/11 14:41:04;;;;;;;2.63;0.80;;;18.50;99.90;;;;;;5067813;28;20020;-66
2021/05/11 14:43:31;;;;;;;3.03;0.57;;;18.60;99.90;;;;;;5067246;28;20052;-66
2021/05/11 14:46:01;;;;;;;3.22;0.70;;;18.70;99.90;;;;;;5062698;28;20044;-66
2021/05/11 14:48:27;;;;;;;2.17;0.77;;;18.50;99.90;;;;;;5071454;28;20028;-66
2021/05/11 14:50:53;;;;;;;1.67;0.90;;;18.50;99.90;;;;;;5070263;28;20543;-66
2021/05/11 14:53:18;;;;;;;1.88;0.85;;;18.40;99.90;;;;;;5069973;28;20508;-66
2021/05/11 14:55:44;;;;;;;2.78;1.13;;;18.20;99.90;;;;;;5069791;28;20024;-66
2021/05/11 14:58:09;;;;;;;4.65;0.98;;;18.40;99.90;;;;;;5066838;28;20059;-66
2021/05/11 15:00:35;;;;;;;2.58;1.00;;;18.60;99.90;;;;;;5070019;28;20278;-66
2021/05/11 15:03:01;;;;;;;2.25;0.82;;;18.70;99.90;;;;;;5069621;28;20082;-67
2021/05/11 15:05:27;;;;;;;4.10;1.13;;;18.70;99.90;;;;;;5069371;28;20028;-66
2021/05/11 15:07:54;;;;;;;2.58;0.80;;;18.60;99.90;;;;;;5070002;28;20029;-66
2021/05/11 15:10:20;;;;;;;3.00;0.90;;;18.70;99.90;;;;;;5071849;28;20319;-66
2021/05/11 15:12:47;;;;;;;2.38;0.90;;;18.90;99.90;;;;;;5069982;28;20481;-66
2021/05/11 15:15:20;;;;;;;2.75;1.10;;;18.80;99.90;;;;;;5071404;28;20385;-66
2021/05/11 15:20:12;;;;;;;3.47;1.00;;;19.20;99.90;;;;;;5071578;28;19912;-66
2021/05/11 15:22:38;;;;;;;3.38;0.80;;;19.30;99.90;;;;;;5071713;28;20025;-66
2021/05/11 15:25:05;;;;;;;3.55;1.08;;;18.90;99.90;;;;;;5071823;28;20066;-67
2021/05/11 15:27:31;;;;;;;2.35;0.98;;;18.80;99.90;;;;;;5069625;28;20064;-67
2021/05/11 15:29:58;;;;;;;3.63;0.95;;;19.50;99.90;;;;;;5065982;28;20485;-66
2021/05/11 15:32:53;;;;;;;3.70;1.00;;;19.90;99.90;;;;;;5058489;28;20545;-67
2021/05/11 15:35:22;;;;;;;3.38;1.00;;;19.30;99.90;;;;;;5060188;28;20417;-66
2021/05/11 15:37:53;;;;;;;4.30;1.08;;;19.20;99.90;;;;;;5061833;28;20028;-65
2021/05/11 15:40:20;;;;;;;3.45;1.10;;;19.00;99.90;;;;;;5052695;28;20028;-68
2021/05/11 15:42:46;;;;;;;3.15;1.08;;;18.80;99.90;;;;;;5069801;28;20503;-67
2021/05/11 15:45:13;;;;;;;3.40;1.20;;;18.70;99.90;;;;;;5067310;28;20017;-67
2021/05/11 15:47:51;;;;;;;4.63;1.45;;;18.40;99.90;;;;;;5060637;28;20385;-67
2021/05/11 15:50:18;;;;;;;3.90;1.50;;;18.10;99.90;;;;;;5071244;28;20028;-65
2021/05/11 15:52:44;;;;;;;3.28;1.20;;;18.40;99.90;;;;;;5071102;28;20123;-65
2021/05/11 15:55:10;;;;;;;4.10;0.95;;;18.60;99.90;;;;;;5069890;28;20119;-67
2021/05/11 15:57:35;;;;;;;3.40;1.20;;;18.90;99.90;;;;;;5071210;28;20043;-65
2021/05/11 16:00:01;;;;;;;6.85;1.67;;;19.40;99.90;;;;;;5069499;28;20024;-65
2021/05/11 16:02:27;;;;;;;5.30;1.42;;;19.10;99.90;;;;;;5070752;28;20044;-66
2021/05/11 16:04:52;;;;;;;4.13;1.50;;;18.80;99.90;;;;;;5069785;28;20028;-66
2021/05/11 16:07:18;;;;;;;5.82;1.85;;;18.40;99.90;;;;;;5071322;28;20067;-66
2021/05/11 16:09:43;;;;;;;4.18;1.75;;;18.40;99.90;;;;;;5071349;28;20032;-66
2021/05/11 16:12:09;;;;;;;3.92;1.45;;;18.60;99.90;;;;;;5069578;28;20032;-66
2021/05/11 16:14:35;;;;;;;5.20;1.90;;;18.50;99.90;;;;;;5069406;28;20040;-66
2021/05/11 16:17:00;;;;;;;4.53;1.70;;;18.30;99.90;;;;;;5070191;28;20035;-66
2021/05/11 16:19:29;;;;;;;4.60;1.95;;;18.10;99.90;;;;;;5070774;28;20138;-66
2021/05/11 16:21:54;;;;;;;6.45;1.83;;;17.90;99.90;;;;;;5070766;28;20024;-66
2021/05/11 16:24:20;;;;;;;5.18;1.85;;;17.70;99.90;;;;;;5070786;28;20032;-67
2021/05/11 16:26:46;;;;;;;12.32;1.92;;;17.70;99.90;;;;;;5070752;28;20047;-66
2021/05/11 16:29:11;;;;;;;7.80;1.70;;;17.60;99.90;;;;;;5070788;28;20388;-66
2021/05/11 16:31:37;;;;;;;7.97;1.80;;;17.40;99.90;;;;;;5070899;28;20028;-66
2021/05/11 16:34:04;;;;;;;5.93;1.80;;;17.30;99.90;;;;;;5071074;28;20047;-66
2021/05/11 16:36:30;;;;;;;5.95;1.48;;;17.10;99.90;;;;;;5070886;28;20485;-66
2021/05/11 16:38:55;;;;;;;7.32;2.40;;;17.00;99.90;;;;;;5070926;28;20017;-66
2021/05/11 16:41:21;;;;;;;9.77;2.78;;;17.00;99.90;;;;;;5069533;28;20115;-66
2021/05/11 16:43:47;;;;;;;7.95;3.00;;;16.90;99.90;;;;;;5070903;28;20112;-67
2021/05/11 16:46:13;;;;;;;13.63;4.40;;;16.70;99.90;;;;;;5069617;28;20162;-67
2021/05/11 16:48:39;;;;;;;9.57;4.25;;;16.60;99.90;;;;;;5069300;28;20029;-67
2021/05/11 16:51:05;;;;;;;17.83;6.05;;;16.20;99.90;;;;;;5070670;28;20107;-68
2021/05/11 16:53:30;;;;;;;18.42;8.25;;;15.70;99.90;;;;;;5071995;28;20032;-67
2021/05/11 16:55:56;;;;;;;13.50;7.20;;;14.70;99.90;;;;;;5071865;28;20317;-66
2021/05/11 16:58:22;;;;;;;17.88;7.78;;;14.10;99.90;;;;;;5071513;28;20017;-66
2021/05/11 17:00:49;;;;;;;16.83;8.52;;;14.00;99.90;;;;;;5071724;28;20025;-66
2021/05/11 17:03:15;;;;;;;22.60;8.40;;;14.00;99.90;;;;;;5069173;28;20026;-65
2021/05/11 17:05:42;;;;;;;17.08;7.75;;;14.00;99.90;;;;;;5070720;28;20060;-65
2021/05/11 17:08:10;;;;;;;18.58;9.65;;;14.00;99.90;;;;;;5070738;28;20021;-64
2021/05/11 17:10:36;;;;;;;21.85;8.40;;;14.00;99.90;;;;;;5070637;28;20029;-64
2021/05/11 17:13:03;;;;;;;15.23;8.73;;;14.00;99.90;;;;;;5070328;28;20035;-65
2021/05/11 17:15:30;;;;;;;15.23;8.00;;;14.00;99.90;;;;;;5070772;28;20023;-64
2021/05/11 17:17:57;;;;;;;17.42;8.82;;;14.00;99.90;;;;;;5070352;28;20027;-64
2021/05/11 17:20:26;;;;;;;18.27;8.68;;;14.00;99.90;;;;;;5069047;28;20035;-65
2021/05/11 17:22:52;;;;;;;14.95;8.02;;;14.00;99.90;;;;;;5070289;28;20032;-63
2021/05/11 17:25:18;;;;;;;13.88;8.25;;;14.00;99.90;;;;;;5070025;28;20385;-63
2021/05/11 17:27:45;;;;;;;15.20;7.88;;;14.00;99.90;;;;;;5069040;28;20135;-63
2021/05/11 17:30:12;;;;;;;11.05;6.78;;;14.00;99.90;;;;;;5074004;28;20074;-63